createdAt,value
2023-02-09T00:01:30.134Z,-1.50
2023-02-09T00:03:59.356Z,-1.50
2023-02-09T00:06:29.927Z,-1.50
2023-02-09T00:08:59.951Z,-1.50
2023-02-09T00:11:43.762Z,-1.60
2023-02-09T00:14:12.318Z,-1.70
2023-02-09T00:16:41.019Z,-1.70
2023-02-09T00:19:09.143Z,-1.80
2023-02-09T00:21:37.612Z,-1.70
2023-02-09T00:24:08.265Z,-1.80
2023-02-09T00:26:36.501Z,-1.90
2023-02-09T00:29:04.967Z,-2.00
2023-02-09T00:31:33.500Z,-2.00
2023-02-09T00:34:01.623Z,-2.00
2023-02-09T00:36:30.267Z,-2.00
2023-02-09T00:38:58.424Z,-2.00
2023-02-09T00:41:41.885Z,-1.90
2023-02-09T00:44:10.992Z,-1.90
2023-02-09T00:46:39.219Z,-2.00
2023-02-09T00:49:07.578Z,-2.00
2023-02-09T00:51:35.895Z,-2.00
2023-02-09T00:54:04.337Z,-2.10
2023-02-09T00:56:33.904Z,-2.30
2023-02-09T00:59:01.985Z,-2.20
2023-02-09T01:01:30.235Z,-2.30
2023-02-09T01:03:58.315Z,-2.30
2023-02-09T01:06:26.418Z,-2.30
2023-02-09T01:08:54.667Z,-2.30
2023-02-09T01:11:27.989Z,-2.20
2023-02-09T01:13:59.195Z,-2.20
2023-02-09T01:16:28.770Z,-2.20
2023-02-09T01:18:57.456Z,-2.30
2023-02-09T01:21:25.686Z,-2.40
2023-02-09T01:23:54.009Z,-2.30
2023-02-09T01:26:22.398Z,-2.10
2023-02-09T01:28:51.983Z,-2.00
2023-02-09T01:31:25.926Z,-1.80
2023-02-09T01:33:55.058Z,-1.80
2023-02-09T01:36:23.808Z,-1.80
2023-02-09T01:38:51.933Z,-1.80
2023-02-09T01:41:20.022Z,-1.70
2023-02-09T01:44:00.048Z,-1.70
2023-02-09T01:46:31.447Z,-1.70
2023-02-09T01:49:05.195Z,-1.60
2023-02-09T01:51:37.269Z,-1.60
2023-02-09T01:54:08.708Z,-1.60
2023-02-09T01:56:39.750Z,-1.60
2023-02-09T01:59:08.982Z,-1.70
2023-02-09T02:01:38.946Z,-1.70
2023-02-09T02:04:07.238Z,-1.70
2023-02-09T02:06:35.479Z,-1.70
2023-02-09T02:09:05.802Z,-1.70
2023-02-09T02:11:34.007Z,-1.70
2023-02-09T02:14:02.100Z,-1.70
2023-02-09T02:16:46.118Z,-1.70
2023-02-09T02:19:39.232Z,-1.70
2023-02-09T02:22:45.290Z,-1.70
2023-02-09T02:25:48.275Z,-1.70
2023-02-09T02:28:41.959Z,-1.70
2023-02-09T02:31:47.594Z,-1.80
2023-02-09T02:34:22.928Z,-1.80
2023-02-09T02:37:00.852Z,-1.80
2023-02-09T02:39:36.204Z,-1.70
2023-02-09T02:42:28.678Z,-1.80
2023-02-09T02:45:07.550Z,-1.80
2023-02-09T02:47:40.288Z,-1.80
2023-02-09T02:50:15.927Z,-1.80
2023-02-09T02:52:47.089Z,-1.80
2023-02-09T02:55:17.332Z,-1.80
2023-02-09T02:57:50.270Z,-1.80
2023-02-09T03:00:22.296Z,-1.90
2023-02-09T03:02:53.341Z,-1.90
2023-02-09T03:05:24.860Z,-1.90
2023-02-09T03:07:53.451Z,-1.80
2023-02-09T03:10:32.538Z,-1.90
2023-02-09T03:13:09.251Z,-1.90
2023-02-09T03:15:47.445Z,-1.90
2023-02-09T03:18:24.063Z,-1.90
2023-02-09T03:20:57.896Z,-1.90
2023-02-09T03:23:33.940Z,-1.90
2023-02-09T03:26:08.540Z,-1.90
2023-02-09T03:28:39.119Z,-1.90
2023-02-09T03:31:07.805Z,-1.90
2023-02-09T03:33:39.051Z,-1.90
2023-02-09T03:36:14.751Z,-2.00
2023-02-09T03:38:42.732Z,-2.00
2023-02-09T03:41:10.709Z,-2.00
2023-02-09T03:43:55.924Z,-2.10
2023-02-09T03:46:23.972Z,-2.00
2023-02-09T03:48:52.207Z,-2.10
2023-02-09T03:51:21.552Z,-2.10
2023-02-09T03:53:49.456Z,-2.10
2023-02-09T03:56:17.652Z,-2.10
2023-02-09T03:58:45.665Z,-2.10
2023-02-09T04:01:13.752Z,-2.10
2023-02-09T04:03:41.722Z,-2.00
2023-02-09T04:06:10.927Z,-2.10
2023-02-09T04:08:40.939Z,-2.10
2023-02-09T04:11:09.183Z,-2.10
2023-02-09T04:13:37.240Z,-2.10
2023-02-09T04:16:05.705Z,-2.20
2023-02-09T04:18:33.696Z,-2.10
2023-02-09T04:21:01.717Z,-2.10
2023-02-09T04:23:29.731Z,-2.10
2023-02-09T04:25:59.106Z,-2.10
2023-02-09T04:28:27.251Z,-2.10
2023-02-09T04:30:55.746Z,-2.10
2023-02-09T04:33:24.706Z,-2.10
2023-02-09T04:35:52.943Z,-2.10
2023-02-09T04:38:22.316Z,-2.10
2023-02-09T04:40:51.629Z,-2.10
2023-02-09T04:43:21.405Z,-2.10
2023-02-09T04:45:49.544Z,-2.10
2023-02-09T04:48:20.531Z,-2.10
2023-02-09T04:50:49.000Z,-2.10
2023-02-09T04:53:17.724Z,-2.10
2023-02-09T04:55:46.896Z,-2.10
2023-02-09T04:58:33.704Z,-2.10
2023-02-09T05:01:03.686Z,-2.10
2023-02-09T05:03:31.891Z,-2.10
2023-02-09T05:06:01.328Z,-2.20
2023-02-09T05:08:29.397Z,-2.20
2023-02-09T05:10:57.865Z,-2.20
2023-02-09T05:13:26.989Z,-2.20
2023-02-09T05:15:55.326Z,-2.20
2023-02-09T05:18:28.886Z,-2.20
2023-02-09T05:20:58.475Z,-2.20
2023-02-09T05:23:26.398Z,-2.20
2023-02-09T05:25:54.971Z,-2.20
2023-02-09T05:28:23.303Z,-2.20
2023-02-09T05:30:53.776Z,-2.20
2023-02-09T05:33:22.404Z,-2.20
2023-02-09T05:35:52.982Z,-2.20
2023-02-09T05:38:21.005Z,-2.20
2023-02-09T05:40:49.374Z,-2.30
2023-02-09T05:43:17.641Z,-2.30
2023-02-09T05:45:46.623Z,-2.30
2023-02-09T05:48:14.784Z,-2.30
2023-02-09T05:50:42.872Z,-2.40
2023-02-09T05:53:13.839Z,-2.40
2023-02-09T05:55:43.629Z,-2.50
2023-02-09T05:58:11.894Z,-2.50
2023-02-09T06:00:40.024Z,-2.50
2023-02-09T06:03:08.192Z,-2.50
2023-02-09T06:05:36.340Z,-2.50
2023-02-09T06:08:04.716Z,-2.50
2023-02-09T06:10:34.150Z,-2.50
2023-02-09T06:13:02.167Z,-2.50
2023-02-09T06:15:30.144Z,-2.40
2023-02-09T06:17:58.266Z,-2.40
2023-02-09T06:20:26.491Z,-2.50
2023-02-09T06:22:54.583Z,-2.40
2023-02-09T06:25:22.597Z,-2.50
2023-02-09T06:27:52.065Z,-2.50
2023-02-09T06:30:20.656Z,-2.50
2023-02-09T06:32:48.920Z,-2.50
2023-02-09T06:35:17.054Z,-2.40
2023-02-09T06:37:45.098Z,-2.40
2023-02-09T06:40:13.828Z,-2.40
2023-02-09T06:42:47.556Z,-2.50
2023-02-09T06:45:18.497Z,-2.40
2023-02-09T06:47:47.631Z,-2.40
2023-02-09T06:50:17.346Z,-2.50
2023-02-09T06:52:45.585Z,-2.40
2023-02-09T06:55:14.549Z,-2.40
2023-02-09T06:57:42.608Z,-2.40
2023-02-09T07:00:13.044Z,-2.40
2023-02-09T07:02:44.265Z,-2.40
2023-02-09T07:05:12.613Z,-2.40
2023-02-09T07:07:41.278Z,-2.30
2023-02-09T07:10:11.910Z,-2.40
2023-02-09T07:12:40.747Z,-2.30
2023-02-09T07:15:09.665Z,-2.30
2023-02-09T07:17:37.904Z,-2.30
2023-02-09T07:20:09.384Z,-2.30
2023-02-09T07:22:38.003Z,-2.30
2023-02-09T07:25:06.849Z,-2.30
2023-02-09T07:27:34.933Z,-2.30
2023-02-09T07:30:03.007Z,-2.20
2023-02-09T07:32:31.064Z,-2.30
2023-02-09T07:35:00.140Z,-2.20
2023-02-09T07:37:29.714Z,-2.20
2023-02-09T07:39:57.765Z,-2.20
2023-02-09T07:42:25.745Z,-2.20
2023-02-09T07:44:53.842Z,-2.20
2023-02-09T07:47:27.609Z,-2.20
2023-02-09T07:49:55.719Z,-2.20
2023-02-09T07:52:23.788Z,-2.20
2023-02-09T07:54:53.096Z,-2.20
2023-02-09T07:57:21.081Z,-2.20
2023-02-09T07:59:49.067Z,-2.10
2023-02-09T08:02:24.462Z,-2.10
2023-02-09T08:04:53.126Z,-2.10
2023-02-09T08:07:21.144Z,-2.00
2023-02-09T08:09:49.231Z,-2.00
2023-02-09T08:12:18.884Z,-2.00
2023-02-09T08:14:48.856Z,-2.00
2023-02-09T08:17:24.243Z,-1.90
2023-02-09T08:19:57.039Z,-1.90
2023-02-09T08:22:29.260Z,-1.90
2023-02-09T08:24:59.471Z,-1.90
2023-02-09T08:27:29.441Z,-1.90
2023-02-09T08:29:58.501Z,-1.90
2023-02-09T08:32:26.599Z,-1.90
2023-02-09T08:34:54.617Z,-1.80
2023-02-09T08:37:22.716Z,-1.80
2023-02-09T08:39:50.904Z,-1.80
2023-02-09T08:42:19.229Z,-1.80
2023-02-09T08:44:48.717Z,-1.70
2023-02-09T08:47:16.891Z,-1.70
2023-02-09T08:49:45.269Z,-1.60
2023-02-09T08:52:13.655Z,-1.60
2023-02-09T08:54:41.757Z,-1.60
2023-02-09T08:57:14.893Z,-1.70
2023-02-09T08:59:42.878Z,-1.70
2023-02-09T09:02:12.128Z,-1.70
2023-02-09T09:04:40.153Z,-1.60
2023-02-09T09:07:08.261Z,-1.60
2023-02-09T09:09:36.620Z,-1.60
2023-02-09T09:12:06.094Z,-1.60
2023-02-09T09:14:34.610Z,-1.50
2023-02-09T09:17:02.779Z,-1.50
2023-02-09T09:19:32.389Z,-1.40
2023-02-09T09:22:04.097Z,-1.30
2023-02-09T09:24:40.666Z,-1.20
2023-02-09T09:27:11.951Z,-1.20
2023-02-09T09:29:40.884Z,-1.10
2023-02-09T09:32:14.286Z,-1.00
2023-02-09T09:34:49.183Z,-0.90
2023-02-09T09:37:25.847Z,-0.70
2023-02-09T09:39:57.547Z,-0.60
2023-02-09T09:42:39.449Z,-0.40
2023-02-09T09:45:21.224Z,-0.30
2023-02-09T09:47:50.240Z,-0.10
2023-02-09T09:50:26.749Z,0.00
2023-02-09T09:53:00.840Z,0.10
2023-02-09T09:58:21.174Z,0.20
2023-02-09T10:00:51.297Z,0.20
2023-02-09T10:03:21.842Z,0.30
2023-02-09T10:05:59.129Z,0.30
2023-02-09T10:08:33.795Z,0.30
2023-02-09T10:11:05.995Z,0.40
2023-02-09T10:13:38.182Z,0.40
2023-02-09T10:16:19.654Z,0.50
2023-02-09T10:18:51.855Z,0.50
2023-02-09T10:21:22.332Z,0.40
2023-02-09T10:24:13.113Z,0.40
2023-02-09T10:26:44.540Z,0.50
2023-02-09T10:29:28.117Z,0.70
2023-02-09T10:32:03.750Z,0.70
2023-02-09T10:34:42.083Z,0.70
2023-02-09T10:37:28.476Z,0.70
2023-02-09T10:40:05.409Z,0.80
2023-02-09T10:42:35.820Z,0.80
2023-02-09T10:45:15.069Z,0.90
2023-02-09T10:47:47.845Z,0.90
2023-02-09T10:50:20.014Z,1.00
2023-02-09T10:53:05.621Z,1.10
2023-02-09T10:55:45.049Z,1.20
2023-02-09T10:58:23.742Z,1.20
2023-02-09T11:01:04.206Z,1.30
2023-02-09T11:04:09.984Z,1.40
2023-02-09T11:06:48.480Z,1.50
2023-02-09T11:09:34.602Z,1.60
2023-02-09T11:12:15.406Z,1.70
2023-02-09T11:14:53.373Z,1.70
2023-02-09T11:17:31.683Z,1.80
2023-02-09T11:20:36.070Z,1.90
2023-02-09T11:23:38.194Z,1.90
2023-02-09T11:26:36.613Z,2.00
2023-02-09T11:29:24.103Z,2.00
2023-02-09T11:32:17.343Z,2.00
2023-02-09T11:35:11.138Z,2.10
2023-02-09T11:38:03.936Z,2.20
2023-02-09T11:40:47.616Z,2.20
2023-02-09T11:43:33.648Z,2.20
2023-02-09T11:46:36.057Z,2.30
2023-02-09T11:49:18.077Z,2.40
2023-02-09T11:51:53.317Z,2.40
2023-02-09T11:54:26.189Z,2.40
2023-02-09T11:57:02.696Z,2.50
2023-02-09T11:59:42.894Z,2.60
2023-02-09T12:02:34.512Z,2.60
2023-02-09T12:05:03.831Z,2.70
2023-02-09T12:08:31.871Z,2.60
2023-02-09T12:11:35.617Z,2.60
2023-02-09T12:14:20.924Z,2.60
2023-02-09T12:17:04.909Z,2.60
2023-02-09T12:19:40.395Z,2.60
2023-02-09T12:23:09.667Z,2.60
2023-02-09T12:26:05.333Z,2.70
2023-02-09T12:28:53.083Z,2.70
2023-02-09T12:31:31.945Z,2.80
2023-02-09T12:34:43.200Z,2.80
2023-02-09T12:37:36.955Z,2.80
2023-02-09T12:40:36.005Z,2.90
2023-02-09T12:43:34.351Z,2.90
2023-02-09T12:46:48.927Z,2.90
2023-02-09T12:49:36.412Z,3.00
2023-02-09T12:52:20.851Z,3.10
2023-02-09T12:54:58.085Z,3.10
2023-02-09T12:58:08.579Z,3.10
2023-02-09T13:01:02.171Z,3.20
2023-02-09T13:03:52.018Z,3.20
2023-02-09T13:06:43.188Z,3.20
2023-02-09T13:09:20.736Z,3.20
2023-02-09T13:12:02.296Z,3.20
2023-02-09T13:14:49.956Z,3.20
2023-02-09T13:21:30.327Z,3.30
2023-02-09T13:24:16.483Z,3.30
2023-02-09T13:26:58.875Z,3.40
2023-02-09T13:29:48.122Z,3.40
2023-02-09T13:32:35.150Z,3.40
2023-02-09T13:35:23.958Z,3.40
2023-02-09T13:38:44.093Z,3.40
2023-02-09T13:41:31.055Z,3.40
2023-02-09T13:44:01.575Z,3.30
2023-02-09T13:46:50.701Z,3.30
2023-02-09T13:49:44.916Z,3.30
2023-02-09T13:52:39.434Z,3.30
2023-02-09T13:55:24.014Z,3.30
2023-02-09T13:58:12.108Z,3.30
2023-02-09T14:01:06.222Z,3.30
2023-02-09T14:03:58.137Z,3.20
2023-02-09T14:06:39.336Z,3.20
2023-02-09T14:09:21.140Z,3.20
2023-02-09T14:12:12.761Z,3.10
2023-02-09T14:15:10.975Z,3.10
2023-02-09T14:18:03.812Z,3.10
2023-02-09T14:20:32.310Z,3.00
2023-02-09T14:23:10.933Z,3.00
2023-02-09T14:25:44.789Z,2.90
2023-02-09T14:28:17.617Z,2.90
2023-02-09T14:30:50.997Z,2.90
2023-02-09T14:33:29.846Z,2.80
2023-02-09T14:36:01.903Z,2.80
2023-02-09T14:38:43.602Z,2.70
2023-02-09T14:41:34.800Z,2.60
2023-02-09T14:44:15.862Z,2.60
2023-02-09T14:46:59.649Z,2.60
2023-02-09T14:49:37.366Z,2.50
2023-02-09T14:52:18.824Z,2.50
2023-02-09T14:54:53.545Z,2.40
2023-02-09T14:57:25.778Z,2.40
2023-02-09T15:00:00.921Z,2.40
2023-02-09T15:02:34.890Z,2.30
2023-02-09T15:05:16.300Z,2.30
2023-02-09T15:07:51.117Z,2.30
2023-02-09T15:10:30.801Z,2.30
2023-02-09T15:13:14.447Z,2.30
2023-02-09T15:15:43.476Z,2.30
2023-02-09T15:18:19.947Z,2.30
2023-02-09T15:20:51.014Z,2.20
2023-02-09T15:23:38.394Z,2.20
2023-02-09T15:26:20.547Z,2.20
2023-02-09T15:28:53.869Z,2.10
2023-02-09T15:31:22.292Z,2.10
2023-02-09T15:33:52.129Z,2.10
2023-02-09T15:36:21.704Z,2.10
2023-02-09T15:38:49.895Z,2.20
2023-02-09T15:41:36.297Z,2.30
2023-02-09T15:44:30.911Z,2.40
2023-02-09T15:47:16.605Z,2.50
2023-02-09T15:49:46.321Z,2.60
2023-02-09T15:52:19.173Z,2.60
2023-02-09T15:54:47.554Z,2.70
2023-02-09T15:57:16.895Z,2.70
2023-02-09T15:59:46.392Z,2.70
2023-02-09T16:02:16.592Z,2.70
2023-02-09T16:04:46.478Z,2.60
2023-02-09T16:07:24.900Z,2.60
2023-02-09T16:09:53.876Z,2.60
2023-02-09T16:12:22.185Z,2.60
2023-02-09T16:14:53.081Z,2.60
2023-02-09T16:17:21.762Z,2.50
2023-02-09T16:19:51.418Z,2.50
2023-02-09T16:22:23.546Z,2.50
2023-02-09T16:24:51.920Z,2.50
2023-02-09T16:27:25.560Z,2.40
2023-02-09T16:29:53.728Z,2.40
2023-02-09T16:32:23.469Z,2.30
2023-02-09T16:34:55.051Z,2.20
2023-02-09T16:37:36.069Z,2.20
2023-02-09T16:40:08.533Z,2.10
2023-02-09T16:42:42.125Z,2.10
2023-02-09T16:45:14.230Z,2.10
2023-02-09T16:47:50.252Z,2.00
2023-02-09T16:50:26.737Z,2.00
2023-02-09T16:52:57.194Z,1.90
2023-02-09T16:55:30.414Z,1.90
2023-02-09T16:58:02.084Z,1.90
2023-02-09T17:00:31.825Z,1.80
2023-02-09T17:03:03.989Z,1.80
2023-02-09T17:05:44.213Z,1.80
2023-02-09T17:08:19.018Z,1.70
2023-02-09T17:10:51.520Z,1.70
2023-02-09T17:13:20.656Z,1.70
2023-02-09T17:15:50.909Z,1.60
2023-02-09T17:18:22.956Z,1.60
2023-02-09T17:20:56.053Z,1.60
2023-02-09T17:23:26.593Z,1.50
2023-02-09T17:25:55.656Z,1.40
2023-02-09T17:28:24.396Z,1.40
2023-02-09T17:30:55.394Z,1.40
2023-02-09T17:33:31.003Z,1.40
2023-02-09T17:38:48.850Z,1.40
2023-02-09T17:41:19.210Z,1.30
2023-02-09T17:43:47.996Z,1.40
2023-02-09T17:46:19.214Z,1.40
2023-02-09T17:48:51.050Z,1.30
2023-02-09T17:51:23.168Z,1.30
2023-02-09T17:53:51.721Z,1.30
2023-02-09T17:56:22.807Z,1.40
2023-02-09T17:58:51.174Z,1.30
2023-02-09T18:01:27.383Z,1.40
2023-02-09T18:04:00.348Z,1.30
2023-02-09T18:06:35.133Z,1.30
2023-02-09T18:09:04.671Z,1.20
2023-02-09T18:12:01.750Z,1.10
2023-02-09T18:14:35.120Z,1.00
2023-02-09T18:17:04.932Z,1.00
2023-02-09T18:19:38.644Z,1.00
2023-02-09T18:22:11.641Z,1.10
2023-02-09T18:24:39.715Z,1.10
2023-02-09T18:27:16.472Z,1.10
2023-02-09T18:29:47.897Z,1.10
2023-02-09T18:32:18.384Z,1.20
2023-02-09T18:34:48.644Z,1.20
2023-02-09T18:37:19.779Z,1.20
2023-02-09T18:39:48.246Z,1.20
2023-02-09T18:42:17.761Z,1.20
2023-02-09T18:44:46.273Z,1.20
2023-02-09T18:47:14.825Z,1.20
2023-02-09T18:49:43.159Z,1.20
2023-02-09T18:52:21.324Z,1.20
2023-02-09T18:54:50.691Z,1.20
2023-02-09T18:57:19.587Z,1.20
2023-02-09T18:59:48.123Z,1.10
2023-02-09T19:02:16.886Z,1.10
2023-02-09T19:04:45.236Z,1.10
2023-02-09T19:07:18.249Z,1.10
2023-02-09T19:09:47.414Z,1.10
2023-02-09T19:12:15.596Z,1.10
2023-02-09T19:14:46.924Z,1.10
2023-02-09T19:17:19.658Z,1.10
2023-02-09T19:19:49.818Z,1.10
2023-02-09T19:22:21.660Z,1.10
2023-02-09T19:24:53.736Z,1.10
2023-02-09T19:27:24.389Z,1.10
2023-02-09T19:29:55.792Z,1.10
2023-02-09T19:32:25.756Z,1.10
2023-02-09T19:34:54.249Z,1.00
2023-02-09T19:37:25.472Z,1.00
2023-02-09T19:40:00.482Z,1.00
2023-02-09T19:42:28.627Z,1.00
2023-02-09T19:44:59.802Z,1.00
2023-02-09T19:47:28.245Z,1.00
2023-02-09T19:50:00.539Z,1.00
2023-02-09T19:52:30.184Z,0.90
2023-02-09T19:54:58.539Z,1.00
2023-02-09T19:57:27.037Z,0.90
2023-02-09T19:59:55.207Z,0.90
2023-02-09T20:02:23.440Z,0.90
2023-02-09T20:04:51.722Z,0.80
2023-02-09T20:07:20.067Z,0.80
2023-02-09T20:09:52.288Z,0.80
2023-02-09T20:12:21.615Z,0.80
2023-02-09T20:14:50.235Z,0.70
2023-02-09T20:19:47.813Z,0.60
2023-02-09T20:22:16.029Z,0.60
2023-02-09T20:24:44.554Z,0.50
2023-02-09T20:27:14.320Z,0.50
2023-02-09T20:29:42.378Z,0.30
2023-02-09T20:32:10.948Z,0.30
2023-02-09T20:34:39.103Z,0.30
2023-02-09T20:37:07.268Z,0.30
2023-02-09T20:39:35.684Z,0.40
2023-02-09T20:42:22.028Z,0.40
2023-02-09T20:45:09.188Z,0.50
2023-02-09T20:47:37.426Z,0.40
2023-02-09T20:50:06.032Z,0.30
2023-02-09T20:52:34.674Z,0.30
2023-02-09T20:55:02.965Z,0.40
2023-02-09T20:57:31.515Z,0.40
2023-02-09T21:00:01.694Z,0.50
2023-02-09T21:02:29.774Z,0.50
2023-02-09T21:04:59.455Z,0.50
2023-02-09T21:07:28.213Z,0.50
2023-02-09T21:09:56.414Z,0.50
2023-02-09T21:12:24.656Z,0.50
2023-02-09T21:14:53.455Z,0.50
2023-02-09T21:17:23.513Z,0.50
2023-02-09T21:19:51.933Z,0.50
2023-02-09T21:22:20.094Z,0.40
2023-02-09T21:24:48.334Z,0.40
2023-02-09T21:27:16.988Z,0.40
2023-02-09T21:29:45.089Z,0.40
2023-02-09T21:32:13.148Z,0.30
2023-02-09T21:34:44.127Z,0.40
2023-02-09T21:37:14.061Z,0.40
2023-02-09T21:39:42.359Z,0.30
2023-02-09T21:42:30.614Z,0.30
2023-02-09T21:45:00.514Z,0.30
2023-02-09T21:47:33.568Z,0.20
2023-02-09T21:50:06.680Z,0.10
2023-02-09T21:52:35.454Z,0.00
2023-02-09T21:55:03.843Z,-0.10
2023-02-09T21:57:36.866Z,-0.20
2023-02-09T22:00:07.694Z,-0.20
2023-02-09T22:02:37.502Z,-0.20
2023-02-09T22:05:08.518Z,-0.20
2023-02-09T22:07:37.114Z,-0.10
2023-02-09T22:10:06.295Z,-0.10
2023-02-09T22:12:36.431Z,0.00
2023-02-09T22:15:04.970Z,0.00
2023-02-09T22:17:33.207Z,0.00
2023-02-09T22:20:01.346Z,0.10
2023-02-09T22:22:31.003Z,0.10
2023-02-09T22:24:59.246Z,0.20
2023-02-09T22:27:27.661Z,0.10
2023-02-09T22:29:55.725Z,0.20
2023-02-09T22:32:24.386Z,0.10
2023-02-09T22:34:52.533Z,0.10
2023-02-09T22:37:20.662Z,0.10
2023-02-09T22:39:50.198Z,0.20
2023-02-09T22:42:18.293Z,0.20
2023-02-09T22:44:46.535Z,0.20
2023-02-09T22:47:14.689Z,0.30
2023-02-09T22:49:45.326Z,0.20
2023-02-09T22:52:13.816Z,0.30
2023-02-09T22:54:41.828Z,0.20
2023-02-09T22:57:11.353Z,0.20
2023-02-09T22:59:39.485Z,0.20
2023-02-09T23:02:07.665Z,0.20
2023-02-09T23:04:35.757Z,0.20
2023-02-09T23:07:05.142Z,0.10
2023-02-09T23:09:33.316Z,0.20
2023-02-09T23:12:01.699Z,0.20
2023-02-09T23:14:31.329Z,0.20
2023-02-09T23:16:59.812Z,0.20
2023-02-09T23:19:28.071Z,0.10
2023-02-09T23:21:56.022Z,0.10
2023-02-09T23:24:28.117Z,0.10
2023-02-09T23:26:56.142Z,0.00
2023-02-09T23:29:24.669Z,-0.10
2023-02-09T23:31:54.516Z,-0.10
2023-02-09T23:34:24.062Z,-0.20
2023-02-09T23:36:52.926Z,-0.30
2023-02-09T23:39:22.505Z,-0.30
2023-02-09T23:41:50.818Z,-0.40
2023-02-09T23:44:19.537Z,-0.50
2023-02-09T23:46:47.834Z,-0.50
2023-02-09T23:49:22.764Z,-0.50
2023-02-09T23:51:51.340Z,-0.50
2023-02-09T23:54:19.576Z,-0.50
2023-02-09T23:56:49.778Z,-0.60
2023-02-09T23:59:18.011Z,-0.60
